ACA725 KLGA-CYYZ
Flight info
| Callsign | ACA725 |
|---|---|
| Flight time | 1h 1m |
| Altitude | 36000 |
| Route | GAYEL Q818 WOZEE LINNG3 |
| Aircraft | B738/M-SDE2E3FGHIRWXY/LB1 |
Departure
| Time | 2026-05-04 02:48 |
|---|---|
| Airport | LaGuardia Airport (KLGA) |
Arrival
| Time | 2026-05-04 03:50 |
|---|---|
| Airport | Toronto Pearson International Airport (CYYZ) |
| Time | Latitude | Longitude | Altitude | Speed | Heading |
|---|---|---|---|---|---|
| 2026-05-04 02:24 | 40.77326 | -73.86711 | 17 ft | 0 kts | 277° |
| 2026-05-04 02:40 | 40.77326 | -73.86710 | 17 ft | 1 kts | 277° |
| 2026-05-04 02:40 | 40.77324 | -73.86682 | 19 ft | 2 kts | 277° |
| 2026-05-04 02:40 | 40.77317 | -73.86657 | 17 ft | 4 kts | 335° |
| 2026-05-04 02:40 | 40.77295 | -73.86655 | 19 ft | 4 kts | 32° |
| 2026-05-04 02:41 | 40.77275 | -73.86677 | 19 ft | 3 kts | 43° |
| 2026-05-04 02:41 | 40.77273 | -73.86679 | 18 ft | 0 kts | 43° |
| 2026-05-04 02:44 | 40.77280 | -73.86671 | 18 ft | 4 kts | 43° |
| 2026-05-04 02:44 | 40.77326 | -73.86616 | 17 ft | 13 kts | 40° |
| 2026-05-04 02:44 | 40.77394 | -73.86529 | 18 ft | 14 kts | 66° |
| 2026-05-04 02:45 | 40.77358 | -73.86419 | 16 ft | 13 kts | 122° |
| 2026-05-04 02:45 | 40.77311 | -73.86319 | 16 ft | 13 kts | 122° |
| 2026-05-04 02:45 | 40.77263 | -73.86224 | 17 ft | 12 kts | 123° |
| 2026-05-04 02:45 | 40.77217 | -73.86128 | 17 ft | 12 kts | 122° |
| 2026-05-04 02:46 | 40.77174 | -73.86034 | 16 ft | 12 kts | 122° |
| 2026-05-04 02:46 | 40.77130 | -73.85944 | 17 ft | 11 kts | 123° |
| 2026-05-04 02:46 | 40.77112 | -73.85865 | 16 ft | 9 kts | 66° |
| 2026-05-04 02:46 | 40.77147 | -73.85805 | 18 ft | 6 kts | 47° |
| 2026-05-04 02:47 | 40.77178 | -73.85770 | 16 ft | 6 kts | 35° |
| 2026-05-04 02:47 | 40.77211 | -73.85742 | 17 ft | 6 kts | 14° |
| 2026-05-04 02:47 | 40.77237 | -73.85773 | 17 ft | 4 kts | 302° |
| 2026-05-04 02:47 | 40.77237 | -73.85774 | 17 ft | 0 kts | 302° |
| 2026-05-04 02:48 | 40.77248 | -73.85797 | 18 ft | 18 kts | 301° |
| 2026-05-04 02:48 | 40.77462 | -73.86248 | 17 ft | 96 kts | 302° |
| 2026-05-04 02:48 | 40.77941 | -73.87246 | 25 ft | 158 kts | 302° |
| 2026-05-04 02:48 | 40.78615 | -73.88516 | 650 ft | 168 kts | 304° |
| 2026-05-04 02:49 | 40.79506 | -73.89515 | 1610 ft | 172 kts | 327° |
| 2026-05-04 02:49 | 40.80565 | -73.90193 | 2570 ft | 167 kts | 328° |
| 2026-05-04 02:49 | 40.81604 | -73.90829 | 3482 ft | 163 kts | 328° |
| 2026-05-04 02:49 | 40.82640 | -73.91499 | 4199 ft | 171 kts | 328° |
| 2026-05-04 02:50 | 40.83735 | -73.92291 | 4498 ft | 194 kts | 325° |
| 2026-05-04 02:50 | 40.84970 | -73.93239 | 4721 ft | 215 kts | 326° |
| 2026-05-04 02:50 | 40.86274 | -73.94233 | 5382 ft | 217 kts | 326° |
| 2026-05-04 02:50 | 40.87635 | -73.95275 | 5685 ft | 237 kts | 326° |
| 2026-05-04 02:51 | 40.89091 | -73.96387 | 6385 ft | 243 kts | 327° |
| 2026-05-04 02:51 | 40.90551 | -73.97496 | 7358 ft | 241 kts | 327° |
| 2026-05-04 02:51 | 40.92012 | -73.98603 | 8217 ft | 243 kts | 327° |
| 2026-05-04 02:51 | 40.93468 | -73.99705 | 9049 ft | 245 kts | 327° |
| 2026-05-04 02:52 | 40.94958 | -74.00833 | 9889 ft | 249 kts | 327° |
| 2026-05-04 02:52 | 40.96489 | -74.01994 | 10399 ft | 263 kts | 327° |
| 2026-05-04 02:52 | 40.98148 | -74.03255 | 10565 ft | 287 kts | 328° |
| 2026-05-04 02:52 | 40.99951 | -74.04625 | 10752 ft | 310 kts | 328° |
| 2026-05-04 02:53 | 41.01891 | -74.06097 | 10932 ft | 331 kts | 328° |
| 2026-05-04 02:53 | 41.03933 | -74.07646 | 11339 ft | 344 kts | 328° |
| 2026-05-04 02:53 | 41.06032 | -74.09236 | 11942 ft | 350 kts | 328° |
| 2026-05-04 02:53 | 41.08158 | -74.10846 | 12607 ft | 354 kts | 328° |
| 2026-05-04 02:54 | 41.10302 | -74.12473 | 13318 ft | 357 kts | 327° |
| 2026-05-04 02:54 | 41.12475 | -74.14124 | 13945 ft | 362 kts | 327° |
| 2026-05-04 02:54 | 41.14671 | -74.15795 | 14532 ft | 366 kts | 327° |
| 2026-05-04 02:54 | 41.16140 | -74.16913 | 14932 ft | 368 kts | 327° |
| 2026-05-04 02:55 | 41.20620 | -74.20323 | 16124 ft | 374 kts | 327° |
| 2026-05-04 02:55 | 41.22889 | -74.22057 | 16715 ft | 378 kts | 327° |
| 2026-05-04 02:55 | 41.25182 | -74.23809 | 17291 ft | 381 kts | 326° |
| 2026-05-04 02:56 | 41.27493 | -74.25576 | 17866 ft | 385 kts | 326° |
| 2026-05-04 02:56 | 41.29822 | -74.27356 | 18386 ft | 388 kts | 326° |
| 2026-05-04 02:56 | 41.32173 | -74.29158 | 18891 ft | 391 kts | 326° |
| 2026-05-04 02:56 | 41.34529 | -74.30964 | 19478 ft | 391 kts | 326° |
| 2026-05-04 02:57 | 41.36864 | -74.32754 | 19989 ft | 393 kts | 326° |
| 2026-05-04 02:57 | 41.39112 | -74.34826 | 20432 ft | 392 kts | 316° |
| 2026-05-04 02:57 | 41.41056 | -74.37372 | 20878 ft | 392 kts | 309° |
| 2026-05-04 02:57 | 41.42725 | -74.40246 | 21318 ft | 393 kts | 300° |
| 2026-05-04 02:58 | 41.44096 | -74.43405 | 21812 ft | 394 kts | 297° |
| 2026-05-04 02:58 | 41.45436 | -74.46599 | 22295 ft | 395 kts | 297° |
| 2026-05-04 02:58 | 41.46793 | -74.49800 | 22746 ft | 398 kts | 298° |
| 2026-05-04 02:58 | 41.48172 | -74.53015 | 23181 ft | 400 kts | 298° |
| 2026-05-04 02:59 | 41.49561 | -74.56243 | 23604 ft | 402 kts | 298° |
| 2026-05-04 02:59 | 41.50958 | -74.59491 | 23946 ft | 404 kts | 298° |
| 2026-05-04 02:59 | 41.52340 | -74.62712 | 24288 ft | 406 kts | 298° |
| 2026-05-04 02:59 | 41.53744 | -74.65988 | 24629 ft | 408 kts | 298° |
| 2026-05-04 03:00 | 41.55157 | -74.69290 | 24961 ft | 410 kts | 298° |
| 2026-05-04 03:00 | 41.56573 | -74.72606 | 25269 ft | 412 kts | 298° |
| 2026-05-04 03:00 | 41.57994 | -74.75931 | 25617 ft | 413 kts | 298° |
| 2026-05-04 03:00 | 41.59421 | -74.79275 | 25943 ft | 415 kts | 298° |
| 2026-05-04 03:01 | 41.60858 | -74.82639 | 26212 ft | 418 kts | 298° |
| 2026-05-04 03:01 | 41.62309 | -74.86032 | 26419 ft | 422 kts | 298° |
| 2026-05-04 03:01 | 41.63770 | -74.89446 | 26740 ft | 423 kts | 298° |
| 2026-05-04 03:01 | 41.65232 | -74.92866 | 27076 ft | 424 kts | 298° |
| 2026-05-04 03:02 | 41.66693 | -74.96289 | 27440 ft | 424 kts | 298° |
| 2026-05-04 03:02 | 41.68153 | -74.99715 | 27884 ft | 422 kts | 298° |
| 2026-05-04 03:02 | 41.69596 | -75.03105 | 28356 ft | 419 kts | 298° |
| 2026-05-04 03:02 | 41.71019 | -75.06453 | 28774 ft | 418 kts | 298° |
| 2026-05-04 03:03 | 41.72460 | -75.09846 | 29119 ft | 418 kts | 298° |
| 2026-05-04 03:03 | 41.73893 | -75.13226 | 29508 ft | 418 kts | 298° |
| 2026-05-04 03:03 | 41.75324 | -75.16605 | 29948 ft | 416 kts | 298° |
| 2026-05-04 03:03 | 41.76750 | -75.19974 | 30299 ft | 414 kts | 298° |
| 2026-05-04 03:04 | 41.78174 | -75.23346 | 30553 ft | 416 kts | 298° |
| 2026-05-04 03:04 | 41.79600 | -75.26723 | 30788 ft | 417 kts | 298° |
| 2026-05-04 03:04 | 41.81025 | -75.30106 | 31068 ft | 417 kts | 298° |
| 2026-05-04 03:04 | 41.82449 | -75.33486 | 31363 ft | 417 kts | 298° |
| 2026-05-04 03:05 | 41.83875 | -75.36875 | 31614 ft | 417 kts | 298° |
| 2026-05-04 03:05 | 41.85301 | -75.40269 | 31867 ft | 418 kts | 298° |
| 2026-05-04 03:05 | 41.86725 | -75.43663 | 32131 ft | 418 kts | 298° |
| 2026-05-04 03:05 | 41.88128 | -75.47010 | 32370 ft | 419 kts | 298° |
| 2026-05-04 03:06 | 41.89556 | -75.50420 | 32605 ft | 419 kts | 297° |
| 2026-05-04 03:06 | 41.90988 | -75.53843 | 32872 ft | 419 kts | 297° |
| 2026-05-04 03:06 | 41.92416 | -75.57259 | 33132 ft | 420 kts | 297° |
| 2026-05-04 03:06 | 41.93844 | -75.60681 | 33367 ft | 420 kts | 297° |
| 2026-05-04 03:07 | 41.95276 | -75.64117 | 33614 ft | 421 kts | 297° |
| 2026-05-04 03:07 | 41.96704 | -75.67550 | 33857 ft | 421 kts | 297° |
| 2026-05-04 03:07 | 41.98135 | -75.70994 | 34078 ft | 421 kts | 297° |
| 2026-05-04 03:07 | 41.99565 | -75.74440 | 34287 ft | 421 kts | 297° |
| 2026-05-04 03:08 | 42.00975 | -75.77840 | 34505 ft | 421 kts | 297° |
| 2026-05-04 03:08 | 42.02401 | -75.81284 | 34687 ft | 421 kts | 297° |
| 2026-05-04 03:08 | 42.03830 | -75.84739 | 34867 ft | 421 kts | 297° |
| 2026-05-04 03:08 | 42.05254 | -75.88184 | 35071 ft | 421 kts | 297° |
| 2026-05-04 03:09 | 42.06677 | -75.91635 | 35271 ft | 421 kts | 297° |
| 2026-05-04 03:09 | 42.08098 | -75.95083 | 35463 ft | 421 kts | 297° |
| 2026-05-04 03:09 | 42.09517 | -75.98530 | 35641 ft | 421 kts | 297° |
| 2026-05-04 03:09 | 42.10918 | -76.01938 | 35827 ft | 421 kts | 296° |
| 2026-05-04 03:10 | 42.12337 | -76.05392 | 35935 ft | 422 kts | 296° |
| 2026-05-04 03:10 | 42.15187 | -76.12342 | 35935 ft | 423 kts | 296° |
| 2026-05-04 03:11 | 42.17667 | -76.19484 | 35951 ft | 419 kts | 291° |
| 2026-05-04 03:11 | 42.19947 | -76.26699 | 35940 ft | 417 kts | 291° |
| 2026-05-04 03:12 | 42.22209 | -76.33851 | 35946 ft | 416 kts | 291° |
| 2026-05-04 03:12 | 42.24497 | -76.41041 | 35935 ft | 416 kts | 291° |
| 2026-05-04 03:13 | 42.26787 | -76.48236 | 35933 ft | 417 kts | 291° |
| 2026-05-04 03:13 | 42.29082 | -76.55460 | 35931 ft | 418 kts | 291° |
| 2026-05-04 03:14 | 42.31360 | -76.62651 | 35934 ft | 419 kts | 291° |
| 2026-05-04 03:14 | 42.33654 | -76.69913 | 35930 ft | 421 kts | 291° |
| 2026-05-04 03:15 | 42.35950 | -76.77204 | 35929 ft | 422 kts | 291° |
| 2026-05-04 03:15 | 42.38247 | -76.84516 | 35930 ft | 423 kts | 291° |
| 2026-05-04 03:16 | 42.40546 | -76.91855 | 35917 ft | 423 kts | 291° |
| 2026-05-04 03:16 | 42.42825 | -76.99148 | 35921 ft | 423 kts | 291° |
| 2026-05-04 03:17 | 42.45112 | -77.06487 | 35915 ft | 422 kts | 291° |
| 2026-05-04 03:17 | 42.47390 | -77.13818 | 35915 ft | 422 kts | 291° |
| 2026-05-04 03:18 | 42.49661 | -77.21148 | 35911 ft | 421 kts | 291° |
| 2026-05-04 03:18 | 42.51926 | -77.28477 | 35933 ft | 421 kts | 291° |
| 2026-05-04 03:19 | 42.54167 | -77.35751 | 35931 ft | 420 kts | 291° |
| 2026-05-04 03:19 | 42.56415 | -77.43068 | 35926 ft | 420 kts | 291° |
| 2026-05-04 03:20 | 42.58660 | -77.50397 | 35921 ft | 420 kts | 291° |
| 2026-05-04 03:20 | 42.60899 | -77.57726 | 35919 ft | 420 kts | 291° |
| 2026-05-04 03:21 | 42.63122 | -77.65022 | 35574 ft | 426 kts | 291° |
| 2026-05-04 03:21 | 42.64256 | -77.68749 | 35037 ft | 425 kts | 291° |
| 2026-05-04 03:21 | 42.65384 | -77.72464 | 34404 ft | 425 kts | 291° |
| 2026-05-04 03:21 | 42.66499 | -77.76171 | 33736 ft | 424 kts | 291° |
| 2026-05-04 03:22 | 42.67570 | -77.79911 | 32981 ft | 423 kts | 290° |
| 2026-05-04 03:22 | 42.68611 | -77.83647 | 32249 ft | 422 kts | 290° |
| 2026-05-04 03:22 | 42.69643 | -77.87380 | 31554 ft | 421 kts | 290° |
| 2026-05-04 03:22 | 42.70671 | -77.91102 | 30828 ft | 420 kts | 290° |
| 2026-05-04 03:23 | 42.71687 | -77.94772 | 30089 ft | 420 kts | 290° |
| 2026-05-04 03:23 | 42.72721 | -77.98501 | 29239 ft | 420 kts | 290° |
| 2026-05-04 03:23 | 42.73742 | -78.02175 | 28724 ft | 412 kts | 290° |
| 2026-05-04 03:23 | 42.74748 | -78.05797 | 28199 ft | 405 kts | 290° |
| 2026-05-04 03:24 | 42.75736 | -78.09359 | 27668 ft | 400 kts | 290° |
| 2026-05-04 03:24 | 42.76712 | -78.12879 | 27132 ft | 395 kts | 290° |
| 2026-05-04 03:24 | 42.77674 | -78.16357 | 26626 ft | 390 kts | 290° |
| 2026-05-04 03:24 | 42.78627 | -78.19805 | 26110 ft | 386 kts | 290° |
| 2026-05-04 03:25 | 42.79565 | -78.23201 | 25601 ft | 382 kts | 290° |
| 2026-05-04 03:25 | 42.80495 | -78.26578 | 25106 ft | 378 kts | 290° |
| 2026-05-04 03:25 | 42.81414 | -78.29919 | 24607 ft | 375 kts | 290° |
| 2026-05-04 03:25 | 42.82314 | -78.33195 | 24127 ft | 373 kts | 290° |
| 2026-05-04 03:26 | 42.83221 | -78.36497 | 23642 ft | 370 kts | 290° |
| 2026-05-04 03:26 | 42.84121 | -78.39780 | 23108 ft | 368 kts | 290° |
| 2026-05-04 03:26 | 42.85011 | -78.43032 | 22574 ft | 364 kts | 290° |
| 2026-05-04 03:26 | 42.85890 | -78.46250 | 22087 ft | 360 kts | 290° |
| 2026-05-04 03:27 | 42.86751 | -78.49403 | 21613 ft | 356 kts | 290° |
| 2026-05-04 03:27 | 42.87612 | -78.52560 | 21136 ft | 354 kts | 290° |
| 2026-05-04 03:27 | 42.88466 | -78.55697 | 20670 ft | 352 kts | 290° |
| 2026-05-04 03:27 | 42.89317 | -78.58829 | 20182 ft | 352 kts | 290° |
| 2026-05-04 03:28 | 42.90178 | -78.61996 | 19708 ft | 360 kts | 290° |
| 2026-05-04 03:28 | 42.91049 | -78.65208 | 19220 ft | 363 kts | 289° |
| 2026-05-04 03:28 | 42.91923 | -78.68431 | 18726 ft | 360 kts | 289° |
| 2026-05-04 03:28 | 42.92776 | -78.71585 | 18239 ft | 356 kts | 289° |
| 2026-05-04 03:29 | 42.93811 | -78.74647 | 17758 ft | 353 kts | 302° |
| 2026-05-04 03:29 | 42.95316 | -78.77254 | 17517 ft | 346 kts | 307° |
| 2026-05-04 03:29 | 42.96873 | -78.79779 | 17241 ft | 349 kts | 307° |
| 2026-05-04 03:29 | 42.98453 | -78.82344 | 16971 ft | 355 kts | 307° |
| 2026-05-04 03:30 | 43.00026 | -78.84915 | 16703 ft | 356 kts | 307° |
| 2026-05-04 03:30 | 43.01604 | -78.87510 | 16431 ft | 353 kts | 307° |
| 2026-05-04 03:30 | 43.03163 | -78.90088 | 16160 ft | 350 kts | 307° |
| 2026-05-04 03:30 | 43.04714 | -78.92663 | 15895 ft | 348 kts | 307° |
| 2026-05-04 03:31 | 43.06253 | -78.95225 | 15660 ft | 347 kts | 307° |
| 2026-05-04 03:31 | 43.07763 | -78.97743 | 15397 ft | 346 kts | 307° |
| 2026-05-04 03:31 | 43.09292 | -79.00293 | 15142 ft | 346 kts | 307° |
| 2026-05-04 03:31 | 43.10819 | -79.02842 | 14911 ft | 346 kts | 307° |
| 2026-05-04 03:32 | 43.12336 | -79.05376 | 14658 ft | 346 kts | 307° |
| 2026-05-04 03:32 | 43.13851 | -79.07907 | 14526 ft | 343 kts | 307° |
| 2026-05-04 03:32 | 43.15369 | -79.10446 | 14285 ft | 344 kts | 307° |
| 2026-05-04 03:32 | 43.16891 | -79.12990 | 14041 ft | 345 kts | 306° |
| 2026-05-04 03:33 | 43.18413 | -79.15540 | 13784 ft | 346 kts | 307° |
| 2026-05-04 03:33 | 43.19919 | -79.18063 | 13515 ft | 346 kts | 306° |
| 2026-05-04 03:33 | 43.21443 | -79.20619 | 13239 ft | 346 kts | 306° |
| 2026-05-04 03:33 | 43.22964 | -79.23172 | 12960 ft | 344 kts | 306° |
| 2026-05-04 03:34 | 43.24472 | -79.25705 | 12701 ft | 341 kts | 306° |
| 2026-05-04 03:34 | 43.25968 | -79.28220 | 12443 ft | 339 kts | 306° |
| 2026-05-04 03:34 | 43.27450 | -79.30713 | 12180 ft | 333 kts | 306° |
| 2026-05-04 03:34 | 43.28891 | -79.33137 | 11929 ft | 323 kts | 306° |
| 2026-05-04 03:35 | 43.30401 | -79.35371 | 11675 ft | 318 kts | 318° |
| 2026-05-04 03:35 | 43.32307 | -79.36878 | 11485 ft | 314 kts | 330° |
| 2026-05-04 03:35 | 43.34283 | -79.38113 | 11255 ft | 308 kts | 330° |
| 2026-05-04 03:35 | 43.36214 | -79.39316 | 11013 ft | 302 kts | 330° |
| 2026-05-04 03:36 | 43.38089 | -79.40495 | 10700 ft | 298 kts | 330° |
| 2026-05-04 03:36 | 43.39959 | -79.41689 | 10402 ft | 295 kts | 330° |
| 2026-05-04 03:36 | 43.41815 | -79.42879 | 10093 ft | 292 kts | 329° |
| 2026-05-04 03:36 | 43.43627 | -79.44043 | 9957 ft | 278 kts | 329° |
| 2026-05-04 03:37 | 43.45320 | -79.45127 | 9843 ft | 264 kts | 329° |
| 2026-05-04 03:37 | 43.46984 | -79.46203 | 9332 ft | 267 kts | 329° |
| 2026-05-04 03:37 | 43.48670 | -79.47294 | 8951 ft | 268 kts | 328° |
| 2026-05-04 03:37 | 43.50331 | -79.48367 | 8664 ft | 265 kts | 328° |
| 2026-05-04 03:38 | 43.51998 | -79.49443 | 8376 ft | 263 kts | 328° |
| 2026-05-04 03:38 | 43.53116 | -79.50164 | 8181 ft | 261 kts | 328° |
| 2026-05-04 03:38 | 43.55278 | -79.51557 | 7923 ft | 255 kts | 328° |
| 2026-05-04 03:38 | 43.56868 | -79.52575 | 7757 ft | 249 kts | 328° |
| 2026-05-04 03:39 | 43.58510 | -79.53323 | 7547 ft | 256 kts | 348° |
| 2026-05-04 03:39 | 43.60292 | -79.52894 | 7373 ft | 268 kts | 18° |
| 2026-05-04 03:39 | 43.61814 | -79.51375 | 7195 ft | 273 kts | 40° |
| 2026-05-04 03:39 | 43.62685 | -79.50122 | 7045 ft | 272 kts | 41° |
| 2026-05-04 03:40 | 43.64392 | -79.47583 | 6725 ft | 267 kts | 42° |
| 2026-05-04 03:40 | 43.65642 | -79.45718 | 6463 ft | 263 kts | 41° |
| 2026-05-04 03:40 | 43.66886 | -79.43878 | 6213 ft | 261 kts | 41° |
| 2026-05-04 03:40 | 43.68130 | -79.42050 | 5918 ft | 261 kts | 41° |
| 2026-05-04 03:41 | 43.69376 | -79.40224 | 5624 ft | 260 kts | 41° |
| 2026-05-04 03:41 | 43.70585 | -79.38452 | 5338 ft | 254 kts | 41° |
| 2026-05-04 03:41 | 43.71770 | -79.36716 | 5044 ft | 249 kts | 41° |
| 2026-05-04 03:41 | 43.72553 | -79.35571 | 4849 ft | 245 kts | 41° |
| 2026-05-04 03:42 | 43.74097 | -79.33310 | 4468 ft | 239 kts | 41° |
| 2026-05-04 03:42 | 43.75355 | -79.31925 | 4218 ft | 224 kts | 13° |
| 2026-05-04 03:42 | 43.76785 | -79.31680 | 3984 ft | 195 kts | 335° |
| 2026-05-04 03:42 | 43.77977 | -79.32378 | 3781 ft | 182 kts | 321° |
| 2026-05-04 03:43 | 43.78716 | -79.32929 | 3629 ft | 184 kts | 320° |
| 2026-05-04 03:43 | 43.79843 | -79.33798 | 3407 ft | 186 kts | 319° |
| 2026-05-04 03:43 | 43.80925 | -79.35401 | 3097 ft | 163 kts | 276° |
| 2026-05-04 03:43 | 43.80899 | -79.36928 | 3088 ft | 160 kts | 261° |
| 2026-05-04 03:44 | 43.80732 | -79.38439 | 3029 ft | 160 kts | 260° |
| 2026-05-04 03:44 | 43.80545 | -79.39955 | 3018 ft | 159 kts | 256° |
| 2026-05-04 03:44 | 43.79951 | -79.41218 | 3022 ft | 161 kts | 227° |
| 2026-05-04 03:44 | 43.79200 | -79.42373 | 3013 ft | 162 kts | 242° |
| 2026-05-04 03:45 | 43.78805 | -79.43252 | 3010 ft | 163 kts | 236° |
| 2026-05-04 03:45 | 43.78055 | -79.44420 | 3019 ft | 162 kts | 231° |
| 2026-05-04 03:45 | 43.77297 | -79.45519 | 3017 ft | 152 kts | 231° |
| 2026-05-04 03:45 | 43.76576 | -79.46563 | 3003 ft | 150 kts | 232° |
| 2026-05-04 03:46 | 43.75845 | -79.47627 | 2962 ft | 153 kts | 231° |
| 2026-05-04 03:46 | 43.75143 | -79.48641 | 2785 ft | 138 kts | 232° |
| 2026-05-04 03:46 | 43.74519 | -79.49546 | 2627 ft | 122 kts | 232° |
| 2026-05-04 03:46 | 43.73944 | -79.50382 | 2468 ft | 118 kts | 232° |
| 2026-05-04 03:47 | 43.73388 | -79.51192 | 2314 ft | 115 kts | 232° |
| 2026-05-04 03:47 | 43.72836 | -79.51992 | 2155 ft | 113 kts | 232° |
| 2026-05-04 03:47 | 43.72306 | -79.52760 | 2003 ft | 107 kts | 232° |
| 2026-05-04 03:47 | 43.71794 | -79.53500 | 1844 ft | 107 kts | 233° |
| 2026-05-04 03:48 | 43.71278 | -79.54269 | 1689 ft | 111 kts | 233° |
| 2026-05-04 03:48 | 43.70740 | -79.55056 | 1575 ft | 115 kts | 229° |
| 2026-05-04 03:48 | 43.70170 | -79.55861 | 1400 ft | 123 kts | 230° |
| 2026-05-04 03:48 | 43.69570 | -79.56763 | 1222 ft | 131 kts | 229° |
| 2026-05-04 03:49 | 43.68919 | -79.57713 | 1033 ft | 139 kts | 226° |
| 2026-05-04 03:49 | 43.68241 | -79.58677 | 836 ft | 141 kts | 227° |
| 2026-05-04 03:49 | 43.67561 | -79.59676 | 617 ft | 145 kts | 227° |
| 2026-05-04 03:49 | 43.66910 | -79.60622 | 566 ft | 121 kts | 227° |
| 2026-05-04 03:50 | 43.66408 | -79.61348 | 559 ft | 84 kts | 226° |
| 2026-05-04 03:50 | 43.66147 | -79.61726 | 563 ft | 35 kts | 226° |
| 2026-05-04 03:50 | 43.66016 | -79.61985 | 561 ft | 30 kts | 248° |
| 2026-05-04 03:50 | 43.65987 | -79.62170 | 565 ft | 12 kts | 284° |
| 2026-05-04 03:51 | 43.66038 | -79.62257 | 564 ft | 12 kts | 315° |
| 2026-05-04 03:51 | 43.66098 | -79.62325 | 565 ft | 11 kts | 327° |
| 2026-05-04 03:51 | 43.66156 | -79.62402 | 566 ft | 12 kts | 314° |
| 2026-05-04 03:51 | 43.66219 | -79.62488 | 559 ft | 13 kts | 327° |
| 2026-05-04 03:52 | 43.66300 | -79.62469 | 560 ft | 14 kts | 40° |
| 2026-05-04 03:52 | 43.66370 | -79.62384 | 569 ft | 13 kts | 42° |
| 2026-05-04 03:52 | 43.66437 | -79.62301 | 567 ft | 13 kts | 42° |
| 2026-05-04 03:52 | 43.66501 | -79.62218 | 563 ft | 13 kts | 43° |
| 2026-05-04 03:53 | 43.66572 | -79.62129 | 565 ft | 15 kts | 42° |
| 2026-05-04 03:53 | 43.66646 | -79.62035 | 565 ft | 14 kts | 45° |
| 2026-05-04 03:53 | 43.66717 | -79.61945 | 572 ft | 14 kts | 41° |
| 2026-05-04 03:53 | 43.66787 | -79.61861 | 566 ft | 13 kts | 41° |
| 2026-05-04 03:54 | 43.66854 | -79.61774 | 565 ft | 14 kts | 44° |
| 2026-05-04 03:54 | 43.66936 | -79.61672 | 565 ft | 17 kts | 42° |
| 2026-05-04 03:54 | 43.67029 | -79.61553 | 569 ft | 18 kts | 42° |
| 2026-05-04 03:54 | 43.67122 | -79.61436 | 567 ft | 18 kts | 42° |
| 2026-05-04 03:55 | 43.67207 | -79.61311 | 571 ft | 16 kts | 52° |
| 2026-05-04 03:55 | 43.67288 | -79.61275 | 562 ft | 14 kts | 321° |
| 2026-05-04 03:55 | 43.67357 | -79.61364 | 561 ft | 14 kts | 316° |
| 2026-05-04 03:55 | 43.67431 | -79.61461 | 561 ft | 15 kts | 316° |
| 2026-05-04 03:56 | 43.67514 | -79.61569 | 568 ft | 17 kts | 317° |
| 2026-05-04 03:56 | 43.67603 | -79.61676 | 562 ft | 16 kts | 342° |
| 2026-05-04 03:56 | 43.67694 | -79.61592 | 562 ft | 16 kts | 46° |
| 2026-05-04 03:56 | 43.67769 | -79.61483 | 562 ft | 15 kts | 46° |
| 2026-05-04 03:57 | 43.67846 | -79.61385 | 562 ft | 15 kts | 28° |
| 2026-05-04 03:57 | 43.67888 | -79.61363 | 564 ft | 1 kts | 26° |
| 2026-05-04 03:57 | 43.67895 | -79.61353 | 566 ft | 3 kts | 45° |
| 2026-05-04 03:57 | 43.67909 | -79.61309 | 563 ft | 7 kts | 72° |
| 2026-05-04 03:58 | 43.67923 | -79.61244 | 562 ft | 0 kts | 74° |